Time;durP1;ratioP1;P1;durP2;ratioP2;P2;SDS_P1;SDS_P2;PMS_P1;PMS_P2;Temp;Humidity;BMP_temperature;BMP_pressure;BME280_temperature;BME280_humidity;BME280_pressure;Samples;Min_cycle;Max_cycle;Signal;HPM_P1;HPM_P2
2023/07/10 00:00:45;;;;;;;;;;;;;;;25.96;45.08;99931.72;1087130;54;19987;-84
2023/07/10 00:01:48;;;;;;;;;;;;;;;25.95;45.06;99928.16;1087063;54;19942;-86
2023/07/10 00:02:49;;;;;;;;;;;;;;;25.91;45.40;99923.44;1086948;54;19949;-84
2023/07/10 00:03:53;;;;;;;;;;;;;;;25.83;45.66;99924.66;1087169;47;19968;-85
2023/07/10 00:04:53;;;;;;;;;;;;;;;25.79;45.64;99929.81;1087037;54;19968;-85
2023/07/10 00:05:57;;;;;;;;;;;;;;;25.65;45.92;99932.06;1087021;47;19938;-84
2023/07/10 00:06:57;;;;;;;;;;;;;;;25.62;45.94;99935.28;1086916;54;19953;-83
2023/07/10 00:08:01;;;;;;;;;;;;;;;25.72;45.69;99936.53;1086951;47;19951;-84
2023/07/10 00:09:02;;;;;;;;;;;;;;;25.83;45.22;99935.63;1087100;47;19942;-83
2023/07/10 00:10:06;;;;;;;;;;;;;;;25.76;45.33;99926.75;1087077;54;19943;-83
2023/07/10 00:11:13;;;;;;;;;;;;;;;25.64;45.42;99935.06;1087063;54;19943;-82
2023/07/10 00:12:25;;;;;;;;;;;;;;;25.74;45.22;99937.94;1087062;54;19950;-84
2023/07/10 00:13:26;;;;;;;;;;;;;;;25.66;45.53;99944.66;1087057;54;19942;-84
2023/07/10 00:14:33;;;;;;;;;;;;;;;25.56;45.97;99952.69;1086936;47;19938;-85
2023/07/10 00:15:36;;;;;;;;;;;;;;;25.62;45.67;99951.69;1087069;54;19962;-83
2023/07/10 00:16:40;;;;;;;;;;;;;;;25.71;45.30;99946.66;1087017;54;20028;-84
2023/07/10 00:17:41;;;;;;;;;;;;;;;25.58;45.85;99946.97;1087027;47;19943;-83
2023/07/10 00:18:44;;;;;;;;;;;;;;;25.54;45.56;99947.47;1087009;54;19943;-85
2023/07/10 00:19:45;;;;;;;;;;;;;;;25.52;45.82;99941.41;1087013;54;19949;-83
2023/07/10 00:20:46;;;;;;;;;;;;;;;25.43;46.03;99956.56;1086984;54;19957;-83
2023/07/10 00:21:50;;;;;;;;;;;;;;;25.46;46.36;99949.78;1087171;54;19943;-82
2023/07/10 00:22:50;;;;;;;;;;;;;;;25.47;45.99;99949.50;1087003;47;19953;-85
2023/07/10 00:23:54;;;;;;;;;;;;;;;25.52;46.07;99951.50;1087114;47;19977;-84
2023/07/10 00:24:54;;;;;;;;;;;;;;;25.62;45.60;99946.22;1087231;54;20023;-83
2023/07/10 00:25:58;;;;;;;;;;;;;;;25.67;45.76;99938.13;1087513;54;21050;-83
2023/07/10 00:26:58;;;;;;;;;;;;;;;25.70;45.74;99943.06;1086983;47;19946;-82
2023/07/10 00:28:02;;;;;;;;;;;;;;;25.77;45.47;99944.84;1087164;54;19942;-83
2023/07/10 00:29:14;;;;;;;;;;;;;;;25.78;45.21;99939.09;1089252;39;20614;-83
2023/07/10 00:30:19;;;;;;;;;;;;;;;25.83;45.03;99932.88;1087307;54;19966;-83
2023/07/10 00:31:24;;;;;;;;;;;;;;;25.85;45.31;99933.47;1087461;54;20517;-84
2023/07/10 00:32:28;;;;;;;;;;;;;;;25.91;45.07;99942.59;1087000;47;19994;-84
2023/07/10 00:33:29;;;;;;;;;;;;;;;25.90;45.08;99930.81;1087242;54;19943;-86
2023/07/10 00:34:32;;;;;;;;;;;;;;;25.92;45.30;99936.88;1087063;47;19988;-85
2023/07/10 00:35:33;;;;;;;;;;;;;;;25.93;45.15;99930.31;1087201;47;19946;-85
2023/07/10 00:36:38;;;;;;;;;;;;;;;25.93;45.35;99941.25;1087159;54;19959;-85
2023/07/10 00:37:39;;;;;;;;;;;;;;;25.91;45.32;99937.13;1087380;54;19942;-86
2023/07/10 00:38:42;;;;;;;;;;;;;;;25.90;45.05;99932.72;1088111;39;20789;-85
2023/07/10 00:39:43;;;;;;;;;;;;;;;25.93;45.22;99938.53;1087206;46;19966;-86
2023/07/10 00:40:47;;;;;;;;;;;;;;;25.95;45.14;99928.16;1087247;54;19942;-86
2023/07/10 00:41:49;;;;;;;;;;;;;;;25.97;45.07;99930.63;1087462;54;19942;-87
2023/07/10 00:42:55;;;;;;;;;;;;;;;25.96;45.03;99927.09;1087420;54;19973;-86
2023/07/10 00:44:00;;;;;;;;;;;;;;;25.99;44.74;99923.00;1087206;47;19942;-87
2023/07/10 00:45:05;;;;;;;;;;;;;;;26.00;44.86;99927.41;1087073;47;19963;-86
2023/07/10 00:46:11;;;;;;;;;;;;;;;26.00;44.75;99922.75;1087172;47;19938;-85
2023/07/10 00:47:19;;;;;;;;;;;;;;;26.01;44.86;99921.69;1087140;47;19942;-87
2023/07/10 00:48:27;;;;;;;;;;;;;;;26.03;44.56;99918.69;1087199;54;19982;-85
2023/07/10 00:49:33;;;;;;;;;;;;;;;26.00;44.72;99917.28;1087030;47;20056;-85
2023/07/10 00:50:36;;;;;;;;;;;;;;;25.97;44.76;99920.53;1087567;39;20818;-84
2023/07/10 00:51:42;;;;;;;;;;;;;;;25.98;44.74;99916.69;1087018;47;19962;-86
2023/07/10 00:52:45;;;;;;;;;;;;;;;25.91;45.24;99916.03;1087181;54;19943;-86
2023/07/10 00:53:50;;;;;;;;;;;;;;;25.86;45.75;99910.50;1087481;54;19949;-86
2023/07/10 00:54:53;;;;;;;;;;;;;;;25.86;45.39;99910.50;1087140;47;19962;-86
2023/07/10 00:55:55;;;;;;;;;;;;;;;25.83;45.38;99920.03;1086898;47;20669;-85
2023/07/10 00:57:00;;;;;;;;;;;;;;;25.82;45.56;99915.66;1086950;47;20032;-84
2023/07/10 00:58:05;;;;;;;;;;;;;;;25.79;45.75;99923.53;1087830;39;20736;-84
2023/07/10 00:59:33;;;;;;;;;;;;;;;25.68;46.53;99930.72;1087057;54;19947;-87
2023/07/10 01:00:34;;;;;;;;;;;;;;;25.66;46.43;99933.72;1086110;46;19957;-84
2023/07/10 01:01:59;;;;;;;;;;;;;;;25.58;46.75;99934.13;1086835;47;21570;-85
2023/07/10 01:03:02;;;;;;;;;;;;;;;25.46;47.46;99942.38;1087976;39;20154;-85
2023/07/10 01:04:07;;;;;;;;;;;;;;;25.46;47.11;99941.56;1086974;54;19942;-84
2023/07/10 01:05:08;;;;;;;;;;;;;;;25.38;47.80;99940.88;1087023;54;19952;-84
2023/07/10 01:06:15;;;;;;;;;;;;;;;25.36;47.52;99945.75;1087029;47;19968;-86
2023/07/10 01:07:16;;;;;;;;;;;;;;;25.34;47.65;99950.63;1089464;39;21097;-85
2023/07/10 01:08:20;;;;;;;;;;;;;;;25.28;48.18;99951.63;1086997;54;19954;-85
2023/07/10 01:09:21;;;;;;;;;;;;;;;25.28;48.05;99967.19;1087084;47;19966;-84
2023/07/10 01:10:25;;;;;;;;;;;;;;;25.24;48.11;99969.56;1086996;54;19946;-86
2023/07/10 01:11:26;;;;;;;;;;;;;;;25.23;47.84;99960.56;1086981;47;19943;-84
2023/07/10 01:12:31;;;;;;;;;;;;;;;25.17;48.45;99977.09;1087371;39;20712;-86
2023/07/10 01:13:33;;;;;;;;;;;;;;;25.17;48.05;99966.16;1087130;47;19943;-86
2023/07/10 01:14:37;;;;;;;;;;;;;;;25.08;48.24;99973.91;1087016;47;19943;-87
2023/07/10 01:15:38;;;;;;;;;;;;;;;25.08;48.37;99972.03;1086935;47;19943;-87
2023/07/10 01:16:41;;;;;;;;;;;;;;;25.04;48.14;99979.03;1086947;54;20375;-87
2023/07/10 01:17:42;;;;;;;;;;;;;;;25.02;48.38;99981.22;1087012;47;19966;-86
2023/07/10 01:18:48;;;;;;;;;;;;;;;25.01;48.33;99982.28;1087036;47;19942;-86
2023/07/10 01:19:49;;;;;;;;;;;;;;;25.00;48.29;99988.81;1087058;54;19942;-84
2023/07/10 01:21:07;;;;;;;;;;;;;;;25.02;48.50;99989.41;1086819;47;20011;-86
2023/07/10 01:22:09;;;;;;;;;;;;;;;25.03;48.17;99987.50;1086946;46;19946;-85
2023/07/10 01:23:12;;;;;;;;;;;;;;;25.03;48.04;99988.31;1086995;54;19946;-86
2023/07/10 01:24:13;;;;;;;;;;;;;;;25.06;48.19;99987.84;1086994;54;20013;-86
2023/07/10 01:25:16;;;;;;;;;;;;;;;25.06;47.91;99976.91;1087070;47;20417;-85
2023/07/10 01:26:17;;;;;;;;;;;;;;;25.06;48.05;99989.75;1086960;47;19942;-87
2023/07/10 01:27:22;;;;;;;;;;;;;;;25.10;47.73;99987.34;1087197;47;19939;-86
2023/07/10 01:28:23;;;;;;;;;;;;;;;25.01;48.18;99995.94;1087041;47;19942;-86
2023/07/10 01:29:25;;;;;;;;;;;;;;;24.99;48.52;100003.56;1087260;54;19942;-87
2023/07/10 01:30:31;;;;;;;;;;;;;;;25.03;48.25;100009.38;1087431;54;19994;-89
2023/07/10 01:31:32;;;;;;;;;;;;;;;25.04;48.15;100006.38;1087142;54;19943;-86
2023/07/10 01:32:36;;;;;;;;;;;;;;;25.04;48.37;100011.84;1086835;47;19943;-87
2023/07/10 01:33:39;;;;;;;;;;;;;;;25.11;48.29;100008.16;1087245;47;19943;-86
2023/07/10 01:34:44;;;;;;;;;;;;;;;25.14;47.83;100015.88;1086894;47;19947;-86
2023/07/10 01:35:46;;;;;;;;;;;;;;;25.07;48.38;100011.38;1087253;54;19954;-87
2023/07/10 01:36:53;;;;;;;;;;;;;;;25.01;48.65;100011.50;1087095;47;19975;-87
2023/07/10 01:37:54;;;;;;;;;;;;;;;25.03;48.51;100007.44;1087186;47;19966;-88
2023/07/10 01:40:00;;;;;;;;;;;;;;;25.03;48.42;100004.72;1087767;54;20015;-84
2023/07/10 01:41:05;;;;;;;;;;;;;;;25.02;48.58;100007.69;1087282;47;19942;-83
2023/07/10 01:42:08;;;;;;;;;;;;;;;25.00;48.49;100005.22;1087383;54;19946;-87
2023/07/10 01:43:10;;;;;;;;;;;;;;;24.98;48.60;100012.81;1087213;47;19943;-88
2023/07/10 01:44:19;;;;;;;;;;;;;;;24.97;48.77;100005.69;1087364;54;19942;-85
2023/07/10 01:45:20;;;;;;;;;;;;;;;24.95;49.04;100016.03;1087164;47;19943;-85
2023/07/10 01:46:24;;;;;;;;;;;;;;;24.96;48.56;100006.75;1087128;54;19973;-84
2023/07/10 01:47:25;;;;;;;;;;;;;;;24.94;48.99;100006.16;1087705;54;19966;-83
2023/07/10 01:48:27;;;;;;;;;;;;;;;24.95;48.99;100001.53;1087034;47;19942;-84
2023/07/10 01:49:32;;;;;;;;;;;;;;;24.99;48.83;100005.44;1087074;47;20015;-84
2023/07/10 01:50:32;;;;;;;;;;;;;;;24.94;48.44;100000.69;1087474;39;20933;-85
2023/07/10 01:51:37;;;;;;;;;;;;;;;24.92;48.94;100000.94;1087128;54;20571;-84
2023/07/10 01:52:40;;;;;;;;;;;;;;;24.94;48.88;100006.16;1087047;47;19938;-83
2023/07/10 01:53:43;;;;;;;;;;;;;;;24.96;48.99;99997.75;1087107;54;19950;-84
2023/07/10 01:54:46;;;;;;;;;;;;;;;24.96;48.68;99989.53;1087075;47;19973;-84
2023/07/10 01:55:47;;;;;;;;;;;;;;;24.97;48.67;99993.94;1087118;54;19943;-83
2023/07/10 01:56:48;;;;;;;;;;;;;;;24.99;48.92;99987.16;1087024;47;19966;-84
2023/07/10 01:57:52;;;;;;;;;;;;;;;25.06;48.21;99982.38;1086887;47;19943;-83
2023/07/10 01:58:52;;;;;;;;;;;;;;;25.12;48.56;99993.44;1087908;39;20870;-85
2023/07/10 01:59:56;;;;;;;;;;;;;;;25.10;48.58;99988.19;1086946;47;19943;-83
2023/07/10 02:00:56;;;;;;;;;;;;;;;25.05;48.48;99991.63;1086994;47;19966;-84
2023/07/10 02:02:00;;;;;;;;;;;;;;;25.04;49.03;99989.16;1086962;47;19966;-84
2023/07/10 02:03:01;;;;;;;;;;;;;;;24.97;49.23;99994.75;1087401;39;20676;-84
2023/07/10 02:04:04;;;;;;;;;;;;;;;24.94;49.11;99994.41;1087385;54;19942;-85
2023/07/10 02:05:08;;;;;;;;;;;;;;;24.85;49.17;99985.75;1087071;47;19942;-83
2023/07/10 02:06:11;;;;;;;;;;;;;;;24.79;49.26;99992.19;1087149;47;19950;-85
2023/07/10 02:07:12;;;;;;;;;;;;;;;24.74;49.81;99990.16;1086870;54;21131;-84
2023/07/10 02:08:18;;;;;;;;;;;;;;;24.70;49.76;100003.50;1086676;54;19942;-85
2023/07/10 02:09:18;;;;;;;;;;;;;;;24.67;49.86;99990.25;1086689;54;19966;-84
2023/07/10 02:10:22;;;;;;;;;;;;;;;24.69;50.13;99982.69;1086827;47;19942;-85
2023/07/10 02:11:23;;;;;;;;;;;;;;;24.67;50.45;99990.25;1086708;47;20988;-84
2023/07/10 02:12:26;;;;;;;;;;;;;;;24.63;50.51;99993.72;1086840;54;19966;-84
2023/07/10 02:13:27;;;;;;;;;;;;;;;24.59;50.76;99993.38;1086947;39;20823;-84
2023/07/10 02:14:30;;;;;;;;;;;;;;;24.54;50.99;99993.25;1086821;54;19943;-85
2023/07/10 02:15:31;;;;;;;;;;;;;;;24.55;50.79;99994.94;1087105;54;20287;-85
2023/07/10 02:16:35;;;;;;;;;;;;;;;24.56;50.89;100000.16;1086695;47;19966;-84
2023/07/10 02:17:36;;;;;;;;;;;;;;;24.58;50.95;99994.44;1088722;39;20867;-84
2023/07/10 02:18:39;;;;;;;;;;;;;;;24.58;50.71;99991.69;1086785;47;19943;-85
2023/07/10 02:19:41;;;;;;;;;;;;;;;24.57;50.94;99987.31;1088615;39;21080;-84
2023/07/10 02:20:44;;;;;;;;;;;;;;;24.58;50.63;99991.69;1086793;47;19950;-85
2023/07/10 02:21:45;;;;;;;;;;;;;;;24.56;50.77;99982.94;1086825;54;20671;-85
2023/07/10 02:22:48;;;;;;;;;;;;;;;24.58;50.76;99981.63;1086752;47;19973;-85
2023/07/10 02:23:51;;;;;;;;;;;;;;;24.59;50.94;99974.22;1086754;54;19994;-85
2023/07/10 02:24:55;;;;;;;;;;;;;;;24.58;50.88;99969.84;1086828;47;19942;-85
2023/07/10 02:25:56;;;;;;;;;;;;;;;24.64;50.74;99966.16;1088274;39;20988;-86
2023/07/10 02:26:59;;;;;;;;;;;;;;;24.69;50.44;99960.00;1086792;47;19950;-83
2023/07/10 02:27:59;;;;;;;;;;;;;;;24.71;50.51;99960.56;1086619;47;19963;-84
2023/07/10 02:29:00;;;;;;;;;;;;;;;24.71;50.97;99958.69;1087113;39;21098;-86
2023/07/10 02:30:04;;;;;;;;;;;;;;;24.75;50.56;99959.84;1087557;39;21166;-85
2023/07/10 02:31:05;;;;;;;;;;;;;;;24.79;49.97;99962.97;1086614;54;19946;-85
2023/07/10 02:32:09;;;;;;;;;;;;;;;24.80;50.04;99963.78;1086846;47;19943;-85
2023/07/10 02:33:10;;;;;;;;;;;;;;;24.78;50.36;99966.75;1086796;54;19943;-85
2023/07/10 02:34:13;;;;;;;;;;;;;;;24.77;50.37;99965.91;1086895;47;19943;-83
2023/07/10 02:35:15;;;;;;;;;;;;;;;24.74;50.61;99962.84;1086803;47;19949;-85
2023/07/10 02:36:18;;;;;;;;;;;;;;;24.66;50.78;99972.19;1087286;39;20573;-83
2023/07/10 02:37:20;;;;;;;;;;;;;;;24.61;51.05;99963.91;1086989;54;19942;-84
2023/07/10 02:38:23;;;;;;;;;;;;;;;24.57;51.02;99974.47;1086793;47;19967;-85
2023/07/10 02:39:26;;;;;;;;;;;;;;;24.56;51.01;99977.47;1086686;54;19943;-84
2023/07/10 02:40:30;;;;;;;;;;;;;;;24.55;51.29;99978.53;1087134;54;19949;-85
2023/07/10 02:41:30;;;;;;;;;;;;;;;24.42;51.74;99974.97;1086788;47;19942;-85
2023/07/10 02:42:34;;;;;;;;;;;;;;;24.44;51.94;99978.31;1086765;47;19954;-86
2023/07/10 02:43:34;;;;;;;;;;;;;;;24.43;51.68;99987.56;1086850;47;19966;-85
2023/07/10 02:44:38;;;;;;;;;;;;;;;24.42;51.85;99982.31;1087215;54;19967;-85
2023/07/10 02:45:39;;;;;;;;;;;;;;;24.45;51.45;99987.31;1087343;54;19942;-85
2023/07/10 02:46:40;;;;;;;;;;;;;;;24.46;51.58;99983.53;1087387;54;19970;-84
2023/07/10 02:47:43;;;;;;;;;;;;;;;24.55;51.65;99986.72;1087061;39;20021;-85
2023/07/10 02:48:44;;;;;;;;;;;;;;;24.47;51.95;99995.28;1087051;47;19942;-84
2023/07/10 02:49:47;;;;;;;;;;;;;;;24.47;51.93;99992.56;1087130;54;19943;-86
2023/07/10 02:50:48;;;;;;;;;;;;;;;24.45;51.56;99992.78;1087029;47;19942;-84
2023/07/10 02:51:49;;;;;;;;;;;;;;;24.48;51.50;100005.13;1087157;54;19942;-84
2023/07/10 02:52:52;;;;;;;;;;;;;;;24.51;51.59;99991.84;1087014;47;19950;-85
2023/07/10 02:53:53;;;;;;;;;;;;;;;24.52;51.60;100001.69;1087056;54;20669;-85
2023/07/10 02:54:59;;;;;;;;;;;;;;;24.48;51.53;100002.38;1087391;54;19998;-82
2023/07/10 02:55:59;;;;;;;;;;;;;;;24.43;51.81;100005.84;1087384;54;19943;-84
2023/07/10 02:57:03;;;;;;;;;;;;;;;24.41;52.11;100014.28;1087367;54;19942;-84
2023/07/10 02:58:06;;;;;;;;;;;;;;;24.47;51.91;100017.16;1087078;47;20010;-85
2023/07/10 02:59:09;;;;;;;;;;;;;;;24.48;51.93;100013.31;1087251;54;20630;-85
2023/07/10 03:00:10;;;;;;;;;;;;;;;24.49;51.69;100014.97;1087014;47;19942;-84
2023/07/10 03:01:13;;;;;;;;;;;;;;;24.47;51.58;100019.88;1087094;47;20673;-85
2023/07/10 03:02:14;;;;;;;;;;;;;;;24.41;51.83;100025.22;1087100;47;19943;-86
2023/07/10 03:03:18;;;;;;;;;;;;;;;24.42;51.61;100026.88;1088953;39;20522;-83
2023/07/10 03:04:18;;;;;;;;;;;;;;;24.41;52.04;100030.66;1088716;31;20747;-86
2023/07/10 03:05:22;;;;;;;;;;;;;;;24.39;52.15;100021.06;1087072;47;19942;-83
2023/07/10 03:06:23;;;;;;;;;;;;;;;24.41;51.74;100027.94;1087013;54;19943;-85
2023/07/10 03:07:27;;;;;;;;;;;;;;;24.39;52.00;100027.34;1087131;47;19942;-85
2023/07/10 03:08:28;;;;;;;;;;;;;;;24.35;51.82;100028.91;1086958;47;19965;-84
2023/07/10 03:09:31;;;;;;;;;;;;;;;24.36;52.31;100035.19;1087058;47;19967;-84
2023/07/10 03:10:36;;;;;;;;;;;;;;;24.31;52.53;100033.16;1087113;47;19942;-84
2023/07/10 03:11:39;;;;;;;;;;;;;;;24.34;52.28;100040.88;1087035;47;19943;-84
2023/07/10 03:12:40;;;;;;;;;;;;;;;24.36;52.15;100032.44;1087059;47;19942;-83
2023/07/10 03:13:43;;;;;;;;;;;;;;;24.40;52.11;100033.66;1087121;46;19948;-87
2023/07/10 03:14:44;;;;;;;;;;;;;;;24.49;51.84;100034.97;1087132;47;19942;-88
2023/07/10 03:15:58;;;;;;;;;;;;;;;24.56;51.78;100032.94;1087058;54;19942;-86
2023/07/10 03:16:59;;;;;;;;;;;;;;;24.63;51.87;100021.03;1087121;47;19942;-85
2023/07/10 03:18:02;;;;;;;;;;;;;;;24.66;51.54;100018.66;1086982;54;19942;-86
2023/07/10 03:19:03;;;;;;;;;;;;;;;24.69;51.03;100022.88;1088196;39;20535;-87
2023/07/10 03:20:07;;;;;;;;;;;;;;;24.73;50.97;100024.88;1087186;54;19949;-85
2023/07/10 03:21:09;;;;;;;;;;;;;;;24.78;50.88;100021.44;1087335;46;19965;-84
2023/07/10 03:22:10;;;;;;;;;;;;;;;24.81;50.75;100022.84;1088145;39;20189;-84
2023/07/10 03:23:13;;;;;;;;;;;;;;;24.84;50.91;100023.19;1087040;47;19966;-86
2023/07/10 03:24:14;;;;;;;;;;;;;;;24.86;50.98;100014.75;1087095;47;19966;-83
2023/07/10 03:25:18;;;;;;;;;;;;;;;24.84;50.88;100011.44;1087098;54;19943;-83
2023/07/10 03:26:21;;;;;;;;;;;;;;;24.89;51.39;100008.81;1087344;54;20678;-85
2023/07/10 03:27:26;;;;;;;;;;;;;;;24.89;51.19;100011.53;1087076;47;19966;-83
2023/07/10 03:28:28;;;;;;;;;;;;;;;24.90;51.28;100015.94;1087988;39;20681;-85
2023/07/10 03:29:31;;;;;;;;;;;;;;;24.95;50.97;100018.75;1087334;54;19973;-84
2023/07/10 03:30:34;;;;;;;;;;;;;;;24.99;50.79;100019.09;1087246;54;19942;-83
2023/07/10 03:31:38;;;;;;;;;;;;;;;25.01;50.66;100020.56;1087307;54;20876;-83
2023/07/10 03:32:39;;;;;;;;;;;;;;;25.03;50.47;100034.78;1087278;54;19943;-84
2023/07/10 03:33:42;;;;;;;;;;;;;;;25.03;50.54;100021.13;1087035;47;19945;-85
2023/07/10 03:34:45;;;;;;;;;;;;;;;25.06;50.76;100020.66;1087094;47;19995;-84
2023/07/10 03:35:49;;;;;;;;;;;;;;;25.06;50.47;100023.38;1087140;54;19954;-86
2023/07/10 03:36:53;;;;;;;;;;;;;;;25.04;50.90;100022.78;1088228;39;20912;-84
2023/07/10 03:37:54;;;;;;;;;;;;;;;25.09;50.59;100035.72;1087232;54;19942;-84
2023/07/10 03:38:57;;;;;;;;;;;;;;;25.10;50.65;100029.19;1087350;54;19943;-85
2023/07/10 03:39:58;;;;;;;;;;;;;;;25.08;50.46;100028.59;1087005;47;19967;-85
2023/07/10 03:41:01;;;;;;;;;;;;;;;25.12;50.37;100037.19;1086790;47;19939;-84
2023/07/10 03:42:05;;;;;;;;;;;;;;;25.11;50.76;100032.78;1086830;47;19945;-87
2023/07/10 03:43:08;;;;;;;;;;;;;;;24.96;51.63;100028.63;1087087;54;19973;-84
2023/07/10 03:44:09;;;;;;;;;;;;;;;25.01;51.38;100027.91;1087781;39;20613;-85
2023/07/10 03:45:13;;;;;;;;;;;;;;;25.00;51.32;100031.72;1087307;54;20018;-84
2023/07/10 03:46:14;;;;;;;;;;;;;;;25.01;50.81;100028.75;1087312;54;19943;-84
2023/07/10 03:47:17;;;;;;;;;;;;;;;25.06;50.53;100025.28;1087264;54;19943;-85
2023/07/10 03:48:18;;;;;;;;;;;;;;;25.09;50.87;100035.72;1087010;47;19947;-87
2023/07/10 03:49:21;;;;;;;;;;;;;;;25.11;50.75;100035.50;1086972;47;20718;-84
2023/07/10 03:50:22;;;;;;;;;;;;;;;25.10;50.74;100039.31;1086916;54;19950;-84
2023/07/10 03:51:25;;;;;;;;;;;;;;;25.04;51.20;100030.16;1087033;54;19943;-84
2023/07/10 03:52:26;;;;;;;;;;;;;;;25.00;50.89;100048.97;1087338;54;19942;-86
2023/07/10 03:53:30;;;;;;;;;;;;;;;24.92;51.22;100047.41;1087172;54;19949;-84
2023/07/10 03:54:32;;;;;;;;;;;;;;;24.95;51.37;100057.03;1087040;47;19949;-84
2023/07/10 03:55:35;;;;;;;;;;;;;;;24.90;51.31;100056.94;1087701;39;20657;-87
2023/07/10 03:56:36;;;;;;;;;;;;;;;24.77;52.06;100077.97;1086967;54;20021;-85
2023/07/10 03:57:42;;;;;;;;;;;;;;;24.69;52.40;100083.00;1086799;47;20904;-88
2023/07/10 03:58:44;;;;;;;;;;;;;;;24.61;52.93;100101.34;1086685;47;19942;-84
2023/07/10 03:59:48;;;;;;;;;;;;;;;24.55;53.24;100113.22;1087638;39;20777;-87
2023/07/10 04:00:49;;;;;;;;;;;;;;;24.57;53.23;100121.19;1086860;54;20895;-86
2023/07/10 04:01:52;;;;;;;;;;;;;;;24.54;53.09;100127.13;1087374;39;20630;-86
2023/07/10 04:02:53;;;;;;;;;;;;;;;24.46;53.67;100133.78;1086999;54;19942;-87
2023/07/10 04:03:56;;;;;;;;;;;;;;;24.42;53.99;100125.22;1087321;54;19954;-85
2023/07/10 04:04:57;;;;;;;;;;;;;;;24.39;53.88;100120.22;1087050;47;20008;-87
2023/07/10 04:06:01;;;;;;;;;;;;;;;24.37;53.97;100119.59;1087005;47;20022;-87
2023/07/10 04:07:02;;;;;;;;;;;;;;;24.34;54.11;100125.56;1087057;54;19966;-85
2023/07/10 04:08:05;;;;;;;;;;;;;;;24.38;54.09;100128.66;1086946;47;19966;-85
2023/07/10 04:09:06;;;;;;;;;;;;;;;24.35;54.11;100124.50;1087070;54;20022;-86
2023/07/10 04:10:10;;;;;;;;;;;;;;;24.36;54.46;100123.44;1087058;47;19966;-85
2023/07/10 04:11:15;;;;;;;;;;;;;;;24.36;54.13;100120.69;1087089;54;19974;-87
2023/07/10 04:12:19;;;;;;;;;;;;;;;24.41;54.53;100118.09;1088273;39;20768;-86
2023/07/10 04:13:23;;;;;;;;;;;;;;;24.30;54.48;100121.63;1086980;54;19942;-85
2023/07/10 04:14:26;;;;;;;;;;;;;;;24.28;54.80;100123.75;1087298;54;19949;-87
2023/07/10 04:15:34;;;;;;;;;;;;;;;24.27;54.77;100125.66;1087360;54;19950;-85
2023/07/10 04:16:42;;;;;;;;;;;;;;;24.27;54.75;100125.66;1086956;47;19973;-85
2023/07/10 04:17:43;;;;;;;;;;;;;;;24.35;54.43;100140.03;1087023;47;19943;-86
2023/07/10 04:18:47;;;;;;;;;;;;;;;24.34;54.49;100133.75;1087967;39;20602;-85
2023/07/10 04:19:54;;;;;;;;;;;;;;;24.29;54.84;100133.59;1087245;54;19938;-86
2023/07/10 04:21:05;;;;;;;;;;;;;;;24.27;54.64;100141.22;1087188;54;19939;-86
2023/07/10 04:22:12;;;;;;;;;;;;;;;24.22;54.83;100138.34;1087446;54;20694;-87
2023/07/10 04:23:22;;;;;;;;;;;;;;;24.18;55.21;100146.16;1087335;54;19943;-86
2023/07/10 04:24:22;;;;;;;;;;;;;;;24.14;55.57;100147.69;1087524;54;19973;-88
2023/07/10 04:25:26;;;;;;;;;;;;;;;24.19;55.18;100152.44;1087577;54;19942;-88
2023/07/10 04:26:27;;;;;;;;;;;;;;;24.32;55.05;100152.25;1087509;54;19954;-85
2023/07/10 04:27:31;;;;;;;;;;;;;;;24.35;54.95;100150.97;1087513;54;19995;-86
2023/07/10 04:28:34;;;;;;;;;;;;;;;24.41;54.76;100144.59;1087374;54;19943;-86
2023/07/10 04:29:38;;;;;;;;;;;;;;;24.45;54.94;100141.16;1087220;47;19942;-85
2023/07/10 04:30:38;;;;;;;;;;;;;;;24.51;54.77;100144.00;1087290;54;19942;-88
2023/07/10 04:31:42;;;;;;;;;;;;;;;24.56;54.87;100141.41;1087202;47;19946;-85
2023/07/10 04:32:43;;;;;;;;;;;;;;;24.59;54.92;100144.50;1087298;54;19998;-84
2023/07/10 04:33:47;;;;;;;;;;;;;;;24.65;54.35;100140.00;1087448;54;19942;-85
2023/07/10 04:34:48;;;;;;;;;;;;;;;24.72;54.30;100140.75;1087182;47;19942;-85
2023/07/10 04:35:55;;;;;;;;;;;;;;;24.71;54.52;100141.81;1087348;54;19965;-86
2023/07/10 04:36:55;;;;;;;;;;;;;;;24.66;54.69;100143.53;1087497;54;19950;-85
2023/07/10 04:37:59;;;;;;;;;;;;;;;24.63;55.06;100141.28;1087399;54;19973;-86
2023/07/10 15:01:26;;;;;;;;;;;;;;;33.94;25.23;100026.94;1086623;54;19934;-83
2023/07/10 15:02:32;;;;;;;;;;;;;;;33.93;25.26;100039.16;1087398;47;19973;-80
2023/07/10 15:03:37;;;;;;;;;;;;;;;34.00;25.22;100039.63;1087494;54;19943;-82
2023/07/10 15:04:37;;;;;;;;;;;;;;;34.05;25.17;100030.41;1087542;54;19943;-82
2023/07/10 15:05:42;;;;;;;;;;;;;;;33.77;25.40;100037.72;1087648;54;20046;-83
2023/07/10 15:06:45;;;;;;;;;;;;;;;33.68;25.30;100034.81;1087216;46;19938;-82
2023/07/10 15:07:48;;;;;;;;;;;;;;;33.64;25.59;100022.69;1087402;54;20718;-82
2023/07/10 15:09:05;;;;;;;;;;;;;;;33.57;25.45;100034.16;1087656;54;20070;-82
2023/07/10 15:10:19;;;;;;;;;;;;;;;33.75;25.48;100030.53;1087580;54;19942;-81
2023/07/10 15:11:30;;;;;;;;;;;;;;;33.62;25.78;100034.09;1088680;39;20733;-80
2023/07/10 15:12:33;;;;;;;;;;;;;;;33.63;25.92;100032.94;1087131;47;19939;-80
2023/07/10 15:13:54;;;;;;;;;;;;;;;33.82;25.66;100032.13;1087347;54;19943;-81
2023/07/10 15:15:10;;;;;;;;;;;;;;;33.68;25.94;100032.88;1087086;47;20682;-81
2023/07/10 15:16:17;;;;;;;;;;;;;;;33.68;25.89;100032.03;1087171;47;19963;-81
2023/07/10 15:17:22;;;;;;;;;;;;;;;33.65;25.90;100029.88;1087219;46;19946;-84
2023/07/10 15:18:26;;;;;;;;;;;;;;;33.88;25.82;100019.84;1087437;54;20028;-83
2023/07/10 15:19:53;;;;;;;;;;;;;;;33.85;25.67;100023.19;1087157;47;19962;-84
2023/07/10 15:23:22;;;;;;;;;;;;;;;33.87;25.53;100026.53;1087227;54;19946;-82
2023/07/10 15:24:34;;;;;;;;;;;;;;;33.58;26.04;100027.50;1087135;47;19970;-82
2023/07/10 15:30:48;;;;;;;;;;;;;;;33.60;26.15;100022.47;1087145;54;19946;-79
2023/07/10 15:31:51;;;;;;;;;;;;;;;33.65;26.11;100018.81;1087032;47;19939;-80
2023/07/10 16:04:04;;;;;;;;;;;;;;;32.85;26.02;100007.41;131222;54;70214;-82
2023/07/10 16:05:24;;;;;;;;;;;;;;;32.63;26.19;100015.09;1088759;54;19981;-84
2023/07/10 16:46:56;;;;;;;;;;;;;;;32.23;25.99;100007.97;1088105;54;20860;-83
